sensor_id;sensor_type;location;lat;lon;timestamp;pressure;altitude;pressure_sealevel;temperature;humidity
42847;BME280;28495;49.916;14.536;2023-04-01T00:02:00;95256.84;;;7.97;72.16
42847;BME280;28495;49.916;14.536;2023-04-01T00:07:21;95262.03;;;7.97;72.19
42847;BME280;28495;49.916;14.536;2023-04-01T00:12:41;95267.72;;;7.92;72.08
42847;BME280;28495;49.916;14.536;2023-04-01T00:18:03;95262.19;;;7.87;72.05
42847;BME280;28495;49.916;14.536;2023-04-01T00:23:24;95260.06;;;7.91;72.41
42847;BME280;28495;49.916;14.536;2023-04-01T00:28:45;95261.38;;;7.95;72.42
42847;BME280;28495;49.916;14.536;2023-04-01T00:34:06;95256.00;;;7.97;72.12
42847;BME280;28495;49.916;14.536;2023-04-01T00:39:30;95251.97;;;7.94;72.12
42847;BME280;28495;49.916;14.536;2023-04-01T00:44:53;95264.94;;;7.94;72.23
42847;BME280;28495;49.916;14.536;2023-04-01T00:50:14;95255.84;;;7.90;71.95
42847;BME280;28495;49.916;14.536;2023-04-01T00:55:39;95257.63;;;7.89;71.89
42847;BME280;28495;49.916;14.536;2023-04-01T01:01:01;95252.94;;;7.85;71.92
42847;BME280;28495;49.916;14.536;2023-04-01T01:06:50;95252.09;;;7.84;72.13
42847;BME280;28495;49.916;14.536;2023-04-01T01:23:21;95253.22;;;7.73;72.04
42847;BME280;28495;49.916;14.536;2023-04-01T01:29:05;95246.91;;;7.68;72.20
42847;BME280;28495;49.916;14.536;2023-04-01T01:34:40;95245.91;;;7.69;71.97
42847;BME280;28495;49.916;14.536;2023-04-01T01:40:07;95245.13;;;7.68;72.24
42847;BME280;28495;49.916;14.536;2023-04-01T01:45:30;95246.09;;;7.67;72.24
42847;BME280;28495;49.916;14.536;2023-04-01T01:50:54;95240.91;;;7.67;72.02
42847;BME280;28495;49.916;14.536;2023-04-01T01:56:17;95248.69;;;7.67;72.36
42847;BME280;28495;49.916;14.536;2023-04-01T02:01:42;95246.25;;;7.66;72.23
42847;BME280;28495;49.916;14.536;2023-04-01T02:07:09;95250.47;;;7.67;72.23
42847;BME280;28495;49.916;14.536;2023-04-01T02:12:33;95251.28;;;7.67;72.45
42847;BME280;28495;49.916;14.536;2023-04-01T02:17:55;95246.41;;;7.64;72.18
42847;BME280;28495;49.916;14.536;2023-04-01T02:23:17;95246.41;;;7.64;72.50
42847;BME280;28495;49.916;14.536;2023-04-01T02:28:40;95241.22;;;7.64;72.20
42847;BME280;28495;49.916;14.536;2023-04-01T02:34:03;95247.88;;;7.67;72.28
42847;BME280;28495;49.916;14.536;2023-04-01T02:39:25;95247.69;;;7.60;72.15
42847;BME280;28495;49.916;14.536;2023-04-01T02:44:48;95254.19;;;7.56;72.32
42847;BME280;28495;49.916;14.536;2023-04-01T02:50:10;95267.59;;;7.51;72.57
42847;BME280;28495;49.916;14.536;2023-04-01T02:55:32;95265.84;;;7.52;72.63
42847;BME280;28495;49.916;14.536;2023-04-01T03:00:53;95268.13;;;7.55;72.77
42847;BME280;28495;49.916;14.536;2023-04-01T03:06:16;95269.09;;;7.62;72.64
42847;BME280;28495;49.916;14.536;2023-04-01T03:11:38;95269.09;;;7.62;72.51
42847;BME280;28495;49.916;14.536;2023-04-01T03:16:59;95275.59;;;7.66;72.28
42847;BME280;28495;49.916;14.536;2023-04-01T03:22:20;95273.50;;;7.70;72.34
42847;BME280;28495;49.916;14.536;2023-04-01T03:27:41;95273.19;;;7.73;72.43
42847;BME280;28495;49.916;14.536;2023-04-01T03:33:02;95277.72;;;7.71;72.37
42847;BME280;28495;49.916;14.536;2023-04-01T03:38:25;95287.63;;;7.75;72.22
42847;BME280;28495;49.916;14.536;2023-04-01T03:43:46;95282.44;;;7.75;72.20
42847;BME280;28495;49.916;14.536;2023-04-01T03:49:10;95285.03;;;7.75;72.11
42847;BME280;28495;49.916;14.536;2023-04-01T03:54:34;95287.31;;;7.78;72.23
42847;BME280;28495;49.916;14.536;2023-04-01T03:59:55;95289.09;;;7.78;72.10
42847;BME280;28495;49.916;14.536;2023-04-01T04:05:16;95306.59;;;7.76;72.12
42847;BME280;28495;49.916;14.536;2023-04-01T04:10:38;95304.31;;;7.73;72.03
42847;BME280;28495;49.916;14.536;2023-04-01T04:15:58;95314.41;;;7.76;72.27
42847;BME280;28495;49.916;14.536;2023-04-01T04:21:20;95316.81;;;7.77;72.39
42847;BME280;28495;49.916;14.536;2023-04-01T04:26:41;95312.78;;;7.83;71.98
42847;BME280;28495;49.916;14.536;2023-04-01T04:32:01;95331.94;;;7.90;72.21
42847;BME280;28495;49.916;14.536;2023-04-01T04:37:23;95331.63;;;7.93;71.87
42847;BME280;28495;49.916;14.536;2023-04-01T04:42:44;95324.34;;;7.97;72.05
42847;BME280;28495;49.916;14.536;2023-04-01T04:48:09;95334.22;;;7.93;72.16
42847;BME280;28495;49.916;14.536;2023-04-01T04:53:31;95333.22;;;7.94;72.02
42847;BME280;28495;49.916;14.536;2023-04-01T04:58:52;95335.03;;;7.94;71.86
42847;BME280;28495;49.916;14.536;2023-04-01T05:04:18;95335.69;;;7.96;71.93
42847;BME280;28495;49.916;14.536;2023-04-01T05:09:39;95337.78;;;7.92;71.93
42847;BME280;28495;49.916;14.536;2023-04-01T05:15:00;95344.09;;;7.90;71.75
42847;BME280;28495;49.916;14.536;2023-04-01T05:20:22;95355.13;;;7.92;71.99
42847;BME280;28495;49.916;14.536;2023-04-01T05:25:43;95352.53;;;7.92;71.93
42847;BME280;28495;49.916;14.536;2023-04-01T05:31:05;95352.72;;;7.99;71.92
42847;BME280;28495;49.916;14.536;2023-04-01T05:36:30;95364.06;;;7.98;71.53
42847;BME280;28495;49.916;14.536;2023-04-01T05:41:51;95352.56;;;8.00;71.95
42847;BME280;28495;49.916;14.536;2023-04-01T05:47:12;95350.47;;;8.04;71.82
42847;BME280;28495;49.916;14.536;2023-04-01T05:52:33;95343.66;;;8.11;71.65
42847;BME280;28495;49.916;14.536;2023-04-01T05:57:54;95341.72;;;8.13;71.42
42847;BME280;28495;49.916;14.536;2023-04-01T06:03:15;95344.47;;;8.12;71.72
42847;BME280;28495;49.916;14.536;2023-04-01T06:08:36;95348.03;;;8.19;71.51
42847;BME280;28495;49.916;14.536;2023-04-01T06:25:45;95360.56;;;8.32;71.16
42847;BME280;28495;49.916;14.536;2023-04-01T06:31:34;95360.75;;;8.30;70.81
42847;BME280;28495;49.916;14.536;2023-04-01T06:42:54;95368.69;;;8.37;70.81
42847;BME280;28495;49.916;14.536;2023-04-01T06:54:38;95384.00;;;8.48;70.88
42847;BME280;28495;49.916;14.536;2023-04-01T07:00:29;95377.97;;;8.48;70.98
42847;BME280;28495;49.916;14.536;2023-04-01T07:05:53;95376.34;;;8.47;70.60
42847;BME280;28495;49.916;14.536;2023-04-01T07:11:27;95378.31;;;8.53;70.69
42847;BME280;28495;49.916;14.536;2023-04-01T07:17:31;95386.13;;;8.61;70.79
42847;BME280;28495;49.916;14.536;2023-04-01T07:22:57;95393.09;;;8.77;70.62
42847;BME280;28495;49.916;14.536;2023-04-01T07:28:30;95395.50;;;8.95;70.89
42847;BME280;28495;49.916;14.536;2023-04-01T07:34:10;95401.22;;;8.99;70.34
42847;BME280;28495;49.916;14.536;2023-04-01T07:51:28;95401.19;;;9.15;70.35
42847;BME280;28495;49.916;14.536;2023-04-01T07:57:19;95414.19;;;9.15;70.14
42847;BME280;28495;49.916;14.536;2023-04-01T08:09:10;95423.63;;;9.25;69.64
42847;BME280;28495;49.916;14.536;2023-04-01T08:15:56;95427.50;;;9.21;69.99
42847;BME280;28495;49.916;14.536;2023-04-01T08:21:00;95423.59;;;9.17;69.48
42847;BME280;28495;49.916;14.536;2023-04-01T08:32:01;95422.66;;;9.09;69.38
42847;BME280;28495;49.916;14.536;2023-04-01T08:37:32;95422.81;;;9.08;69.46
42847;BME280;28495;49.916;14.536;2023-04-01T08:49:56;95424.72;;;9.39;69.23
42847;BME280;28495;49.916;14.536;2023-04-01T08:55:22;95431.34;;;9.58;69.51
42847;BME280;28495;49.916;14.536;2023-04-01T09:07:28;95425.94;;;10.07;69.03
42847;BME280;28495;49.916;14.536;2023-04-01T09:19:04;95424.16;;;10.08;68.01
42847;BME280;28495;49.916;14.536;2023-04-01T09:24:49;95429.75;;;9.97;68.42
42847;BME280;28495;49.916;14.536;2023-04-01T09:30:27;95439.22;;;9.89;67.92
42847;BME280;28495;49.916;14.536;2023-04-01T09:36:32;95435.69;;;9.82;68.03
42847;BME280;28495;49.916;14.536;2023-04-01T09:53:57;95451.41;;;9.97;68.04
42847;BME280;28495;49.916;14.536;2023-04-01T10:11:09;95442.84;;;9.80;67.59
42847;BME280;28495;49.916;14.536;2023-04-01T10:27:56;95453.34;;;9.95;67.46
42847;BME280;28495;49.916;14.536;2023-04-01T10:56:39;95441.38;;;10.17;66.90
42847;BME280;28495;49.916;14.536;2023-04-01T11:02:38;95443.31;;;10.24;67.13
42847;BME280;28495;49.916;14.536;2023-04-01T11:32:16;95450.53;;;10.13;66.45
42847;BME280;28495;49.916;14.536;2023-04-01T11:37:45;95446.13;;;10.14;66.34
42847;BME280;28495;49.916;14.536;2023-04-01T11:43:43;95447.75;;;10.06;66.44
42847;BME280;28495;49.916;14.536;2023-04-01T11:55:24;95449.81;;;10.28;66.55
42847;BME280;28495;49.916;14.536;2023-04-01T12:40:45;95451.78;;;10.80;66.12
42847;BME280;28495;49.916;14.536;2023-04-01T13:09:17;95453.94;;;11.00;65.43
42847;BME280;28495;49.916;14.536;2023-04-01T13:15:20;95455.59;;;10.93;65.50
42847;BME280;28495;49.916;14.536;2023-04-01T13:20:49;95448.06;;;10.98;65.88
42847;BME280;28495;49.916;14.536;2023-04-01T13:26:58;95447.84;;;11.08;65.86
42847;BME280;28495;49.916;14.536;2023-04-01T13:44:06;95457.41;;;11.16;65.37
42847;BME280;28495;49.916;14.536;2023-04-01T13:49:57;95450.56;;;11.15;65.28
42847;BME280;28495;49.916;14.536;2023-04-01T14:00:54;95445.63;;;11.35;65.38
42847;BME280;28495;49.916;14.536;2023-04-01T14:24:18;95480.78;;;11.09;65.44
42847;BME280;28495;49.916;14.536;2023-04-01T14:29:54;95479.56;;;10.96;66.42
42847;BME280;28495;49.916;14.536;2023-04-01T14:35:35;95491.00;;;10.64;66.28
42847;BME280;28495;49.916;14.536;2023-04-01T14:52:35;95476.19;;;10.25;66.72
42847;BME280;28495;49.916;14.536;2023-04-01T14:58:15;95479.78;;;10.24;66.80
42847;BME280;28495;49.916;14.536;2023-04-01T15:25:51;95485.22;;;10.77;67.94
42847;BME280;28495;49.916;14.536;2023-04-01T15:47:46;95497.41;;;10.53;67.31
42847;BME280;28495;49.916;14.536;2023-04-01T16:04:47;95511.31;;;10.37;66.99
42847;BME280;28495;49.916;14.536;2023-04-01T16:21:53;95524.53;;;10.35;66.91
42847;BME280;28495;49.916;14.536;2023-04-01T16:27:36;95531.56;;;10.27;67.09
42847;BME280;28495;49.916;14.536;2023-04-01T16:33:12;95536.63;;;10.20;66.96
42847;BME280;28495;49.916;14.536;2023-04-01T16:38:48;95537.47;;;10.12;66.77
42847;BME280;28495;49.916;14.536;2023-04-01T16:44:18;95545.16;;;10.05;66.83
42847;BME280;28495;49.916;14.536;2023-04-01T16:49:47;95553.63;;;9.99;67.01
42847;BME280;28495;49.916;14.536;2023-04-01T16:55:17;95562.41;;;9.98;66.91
42847;BME280;28495;49.916;14.536;2023-04-01T17:00:49;95558.81;;;9.91;66.87
42847;BME280;28495;49.916;14.536;2023-04-01T17:11:56;95578.06;;;9.82;67.19
42847;BME280;28495;49.916;14.536;2023-04-01T17:23:23;95591.72;;;9.84;67.14
42847;BME280;28495;49.916;14.536;2023-04-01T17:34:52;95599.53;;;9.84;67.29
42847;BME280;28495;49.916;14.536;2023-04-01T17:45:49;95612.09;;;9.64;67.48
42847;BME280;28495;49.916;14.536;2023-04-01T18:25:44;95664.09;;;9.39;68.94
42847;BME280;28495;49.916;14.536;2023-04-01T18:31:17;95666.06;;;9.45;69.03
42847;BME280;28495;49.916;14.536;2023-04-01T18:36:47;95671.09;;;9.46;68.78
42847;BME280;28495;49.916;14.536;2023-04-01T18:42:36;95676.00;;;9.41;68.59
42847;BME280;28495;49.916;14.536;2023-04-01T18:54:06;95694.56;;;9.55;69.14
42847;BME280;28495;49.916;14.536;2023-04-01T18:59:39;95689.97;;;9.49;68.65
42847;BME280;28495;49.916;14.536;2023-04-01T19:05:11;95697.47;;;9.43;69.19
42847;BME280;28495;49.916;14.536;2023-04-01T19:16:04;95697.59;;;9.42;69.23
42847;BME280;28495;49.916;14.536;2023-04-01T19:21:40;95699.91;;;9.45;69.55
42847;BME280;28495;49.916;14.536;2023-04-01T19:33:17;95710.47;;;9.43;69.57
42847;BME280;28495;49.916;14.536;2023-04-01T19:44:41;95716.13;;;9.39;69.54
42847;BME280;28495;49.916;14.536;2023-04-01T19:55:50;95720.03;;;9.35;69.38
42847;BME280;28495;49.916;14.536;2023-04-01T20:07:24;95730.72;;;9.23;69.64
42847;BME280;28495;49.916;14.536;2023-04-01T20:24:29;95744.88;;;9.21;69.82
42847;BME280;28495;49.916;14.536;2023-04-01T20:35:50;95737.22;;;9.19;69.94
42847;BME280;28495;49.916;14.536;2023-04-01T20:47:44;95742.25;;;9.21;69.86
42847;BME280;28495;49.916;14.536;2023-04-01T20:53:05;95747.63;;;9.19;70.14
42847;BME280;28495;49.916;14.536;2023-04-01T21:09:55;95758.19;;;9.18;70.30
42847;BME280;28495;49.916;14.536;2023-04-01T21:15:39;95760.75;;;9.09;69.77
42847;BME280;28495;49.916;14.536;2023-04-01T21:37:45;95767.91;;;9.07;70.46
42847;BME280;28495;49.916;14.536;2023-04-01T21:43:22;95779.09;;;9.08;70.53
42847;BME280;28495;49.916;14.536;2023-04-01T22:00:32;95780.44;;;9.12;70.40
42847;BME280;28495;49.916;14.536;2023-04-01T22:17:23;95788.88;;;9.06;70.23
42847;BME280;28495;49.916;14.536;2023-04-01T22:29:01;95793.75;;;9.09;70.53
42847;BME280;28495;49.916;14.536;2023-04-01T22:56:00;95802.22;;;9.11;70.21
42847;BME280;28495;49.916;14.536;2023-04-01T23:01:29;95803.50;;;9.07;70.39
42847;BME280;28495;49.916;14.536;2023-04-01T23:06:59;95804.66;;;9.12;70.88
42847;BME280;28495;49.916;14.536;2023-04-01T23:12:21;95809.41;;;9.17;70.82
42847;BME280;28495;49.916;14.536;2023-04-01T23:18:19;95813.63;;;9.18;70.46
42847;BME280;28495;49.916;14.536;2023-04-01T23:29:14;95822.41;;;9.17;70.97
42847;BME280;28495;49.916;14.536;2023-04-01T23:34:36;95828.78;;;9.23;70.92
42847;BME280;28495;49.916;14.536;2023-04-01T23:39:58;95829.53;;;9.07;70.45
42847;BME280;28495;49.916;14.536;2023-04-01T23:45:19;95834.81;;;8.97;70.72
42847;BME280;28495;49.916;14.536;2023-04-01T23:50:41;95838.97;;;8.90;70.75
42847;BME280;28495;49.916;14.536;2023-04-01T23:56:03;95843.09;;;8.92;70.55
